Terminal Aerodrome Forecast
Issued by NWS

Home | Current Version | Previous Version | Text Only | Print | Product List | Glossary On
Versions: 1 2 3 4 5 6 7 8 9 10 11 12
000
FTUS42 TJSJ 291120
TAFNCM
TAF
TNCM 291120Z 2912/3012 08007KT P6SM VCSH FEW018
     FM291300 10012KT P6SM VCSH SCT019
     FM292100 08010KT P6SM VCSH FEW018=

USA.gov is the U.S. government's official web portal to all federal, state and local government web resources and services.